»·PEaware :: DAL1968 KSEA-KSLC

DAL1968 :: KSEA-KSLC

FLIGHT INFORMATION

Flight Status: Arrived
Operator:
Delta Air Lines
More flights by this operator :: More flights under this callsign
Pilot: Anonymous 3069 (3069)
Aircraft: BOEING 737-800
(B738)
More flights by this aircraft type
Origin: KSEA Seattle-Tacoma Intl
United States
Destination: KSLC Salt Lake City Intl
United States
More flights between these airports :: More routes between these airports
Route: SUMMA1 BKE BYI SKEES5
File this flight plan on PilotEdge
Remarks: Happy New Year, please be nice xoxoxo
Altitude:
(Current/Filed)
39,000ft
Speed:
(Current/Filed)
439kts
Departed: 02-Jan-18 01:07 PM
Arrived: 02-Jan-18 02:44 PM
Distance/Time
Traveled:
597nm/1:37
Distance/Time
To Go:
Arrived

Flight Plot

Page will automatically refresh every two minutes.

Flight plan parsing failed; only flown route is shown


Map Options




Map Legend


Flown Route
Filed Route
Departure Airport
Arrival Airport
Navaid (VOR, NDB)
Fix

Horizontal Profiles

Position Reports

Time Latitude Longitude Heading Altitude Ground
Speed
02-Jan-18 12:39 47.440493 -122.303792 10 441ft 0kts
02-Jan-18 12:40 47.440493 -122.303792 10 441ft 0kts
02-Jan-18 12:41 47.440493 -122.303792 10 441ft 0kts
02-Jan-18 12:42 47.440493 -122.303792 10 441ft 0kts
02-Jan-18 12:43 47.440493 -122.303792 10 441ft 0kts
02-Jan-18 12:44 47.440493 -122.303792 10 441ft 0kts
02-Jan-18 12:45 47.440493 -122.303792 10 441ft 0kts
02-Jan-18 12:46 47.440493 -122.303792 10 441ft 0kts
02-Jan-18 12:47 47.440493 -122.303792 10 441ft 0kts
02-Jan-18 12:48 47.440493 -122.303792 10 441ft 0kts
02-Jan-18 12:49 47.440493 -122.303792 10 441ft 0kts
02-Jan-18 12:50 47.440493 -122.303792 10 441ft 0kts
02-Jan-18 12:51 47.440493 -122.303792 10 441ft 0kts
02-Jan-18 12:52 47.440493 -122.303792 10 441ft 0kts
02-Jan-18 12:53 47.440493 -122.303792 10 441ft 0kts
02-Jan-18 12:54 47.440493 -122.303792 10 441ft 0kts
02-Jan-18 12:55 47.440493 -122.303792 10 441ft 0kts
02-Jan-18 12:56 47.440493 -122.303792 10 441ft 0kts
02-Jan-18 12:57 47.440493 -122.303792 10 441ft 0kts
02-Jan-18 12:58 47.440493 -122.303792 10 441ft 0kts
02-Jan-18 12:59 47.440493 -122.303792 10 441ft 0kts
02-Jan-18 13:00 47.440043 -122.303912 10 441ft 3kts
02-Jan-18 13:01 47.439834 -122.303949 357 441ft 0kts
02-Jan-18 13:02 47.439834 -122.303949 357 441ft 0kts
02-Jan-18 13:03 47.439834 -122.303949 357 441ft 0kts
02-Jan-18 13:04 47.439923 -122.303993 323 441ft 2kts
02-Jan-18 13:05 47.439901 -122.305598 270 441ft 0kts
02-Jan-18 13:06 47.439901 -122.305598 270 441ft 0kts
02-Jan-18 13:07 47.439300 -122.306343 185 441ft 11kts
02-Jan-18 13:08 47.434934 -122.305576 180 441ft 19kts
02-Jan-18 13:09 47.431984 -122.307991 337 441ft 11kts
02-Jan-18 13:10 47.432336 -122.308036 1 441ft 0kts
02-Jan-18 13:11 47.432336 -122.308036 1 441ft 0kts
02-Jan-18 13:12 47.432340 -122.308036 1 441ft 0kts
02-Jan-18 13:13 47.456935 -122.307944 359 1126ft 156kts
02-Jan-18 13:14 47.498936 -122.306042 359 3455ft 160kts
02-Jan-18 13:15 47.554738 -122.308905 356 4704ft 256kts
02-Jan-18 13:16 47.622374 -122.255943 73 8540ft 285kts
02-Jan-18 13:17 47.610567 -122.168262 111 10754ft 307kts
02-Jan-18 13:18 47.568102 -122.070947 154 13666ft 317kts
02-Jan-18 13:19 47.486673 -122.069486 189 16762ft 320kts
02-Jan-18 13:20 47.401053 -122.081431 186 19670ft 332kts
02-Jan-18 13:21 47.316806 -122.088614 186 22197ft 344kts
02-Jan-18 13:22 47.225448 -122.095733 187 24594ft 358kts
02-Jan-18 13:23 47.125419 -122.103412 188 26986ft 370kts
02-Jan-18 13:24 47.023707 -122.111179 189 29545ft 368kts
02-Jan-18 13:25 46.921807 -122.118840 186 31403ft 379kts
02-Jan-18 13:26 46.831638 -122.091629 169 32992ft 396kts
02-Jan-18 13:27 46.734819 -122.046007 168 34684ft 397kts
02-Jan-18 13:28 46.636718 -121.993386 153 36287ft 406kts
02-Jan-18 13:29 46.567334 -121.866817 126 37632ft 423kts
02-Jan-18 13:30 46.504946 -121.724885 126 38862ft 423kts
02-Jan-18 13:31 46.441568 -121.581376 126 39461ft 431kts
02-Jan-18 13:32 46.375915 -121.432169 125 39664ft 449kts
02-Jan-18 13:33 46.308371 -121.278219 126 39670ft 472kts
02-Jan-18 13:34 46.236811 -121.114698 125 39662ft 491kts
02-Jan-18 13:35 46.164137 -120.948119 124 39659ft 495kts
02-Jan-18 13:36 46.091284 -120.780492 124 39657ft 494kts
02-Jan-18 13:37 46.018682 -120.612962 123 39657ft 495kts
02-Jan-18 13:38 45.946044 -120.444731 123 39655ft 495kts
02-Jan-18 13:39 45.875957 -120.281755 124 39647ft 495kts
02-Jan-18 13:40 45.804256 -120.114454 123 39646ft 495kts
02-Jan-18 13:41 45.732492 -119.946521 123 39648ft 495kts
02-Jan-18 13:42 45.661239 -119.779197 123 39650ft 495kts
02-Jan-18 13:43 45.589862 -119.611001 123 39650ft 495kts
02-Jan-18 13:44 45.519204 -119.443889 122 39652ft 495kts
02-Jan-18 13:45 45.453035 -119.286767 123 39647ft 495kts
02-Jan-18 13:46 45.382570 -119.118869 122 39623ft 495kts
02-Jan-18 13:47 45.312266 -118.950922 122 39605ft 499kts
02-Jan-18 13:48 45.241009 -118.780061 120 39609ft 507kts
02-Jan-18 13:49 45.169821 -118.608684 120 39576ft 506kts
02-Jan-18 13:50 45.099319 -118.438347 120 39539ft 505kts
02-Jan-18 13:51 45.031651 -118.274144 120 39533ft 502kts
02-Jan-18 13:52 44.962199 -118.105079 121 39525ft 499kts
02-Jan-18 13:53 44.894507 -117.939811 120 39523ft 499kts
02-Jan-18 13:54 44.826711 -117.779815 128 39521ft 497kts
02-Jan-18 13:55 44.740371 -117.631488 131 39522ft 496kts
02-Jan-18 13:56 44.655941 -117.488425 130 39526ft 497kts
02-Jan-18 13:57 44.569152 -117.341083 131 39537ft 504kts
02-Jan-18 13:58 44.481026 -117.190923 131 39589ft 525kts
02-Jan-18 13:59 44.389215 -117.034278 130 39622ft 533kts
02-Jan-18 14:00 44.296073 -116.874986 129 39624ft 540kts
02-Jan-18 14:01 44.202812 -116.715031 129 39627ft 540kts
02-Jan-18 14:02 44.109057 -116.553858 128 39617ft 540kts
02-Jan-18 14:03 44.014825 -116.391455 128 39604ft 540kts
02-Jan-18 14:04 43.923409 -116.233354 128 39571ft 540kts
02-Jan-18 14:05 43.832284 -116.075475 128 39554ft 540kts
02-Jan-18 14:06 43.739814 -115.914907 128 39556ft 540kts
02-Jan-18 14:07 43.647679 -115.754518 128 39557ft 540kts
02-Jan-18 14:08 43.555232 -115.593170 127 39554ft 540kts
02-Jan-18 14:09 43.462722 -115.431311 127 39554ft 540kts
02-Jan-18 14:10 43.371957 -115.271967 128 39548ft 540kts
02-Jan-18 14:11 43.279447 -115.109244 127 39542ft 541kts
02-Jan-18 14:12 43.187414 -114.946996 126 39535ft 542kts
02-Jan-18 14:13 43.095369 -114.784263 126 39532ft 542kts
02-Jan-18 14:14 43.003832 -114.622035 126 39539ft 543kts
02-Jan-18 14:15 42.911808 -114.458532 126 39542ft 545kts
02-Jan-18 14:16 42.830047 -114.312883 127 39523ft 545kts
02-Jan-18 14:17 42.739011 -114.150236 127 39524ft 545kts
02-Jan-18 14:18 42.647726 -113.986848 127 39520ft 545kts
02-Jan-18 14:19 42.553752 -113.827817 136 39535ft 544kts
02-Jan-18 14:20 42.446473 -113.686896 136 39475ft 516kts
02-Jan-18 14:21 42.345861 -113.552822 136 39494ft 503kts
02-Jan-18 14:22 42.251057 -113.426609 136 37891ft 473kts
02-Jan-18 14:23 42.158694 -113.305904 137 35557ft 465kts
02-Jan-18 14:24 42.067278 -113.186599 137 33255ft 455kts
02-Jan-18 14:25 41.977873 -113.069910 136 31002ft 445kts
02-Jan-18 14:26 41.892463 -112.958285 135 28852ft 448kts
02-Jan-18 14:27 41.813779 -112.855316 135 26782ft 450kts
02-Jan-18 14:28 41.725742 -112.739936 134 24299ft 440kts
02-Jan-18 14:29 41.640329 -112.629135 134 21820ft 424kts
02-Jan-18 14:30 41.557740 -112.523085 134 19347ft 408kts
02-Jan-18 14:31 41.470720 -112.433205 149 16859ft 390kts
02-Jan-18 14:32 41.378032 -112.369300 152 15069ft 357kts
02-Jan-18 14:33 41.296600 -112.312049 152 13989ft 349kts
02-Jan-18 14:34 41.212680 -112.251969 150 12969ft 339kts
02-Jan-18 14:35 41.132574 -112.190561 150 12463ft 337kts
02-Jan-18 14:36 41.049677 -112.140552 170 11960ft 331kts
02-Jan-18 14:37 40.967012 -112.123545 170 11474ft 326kts
02-Jan-18 14:38 40.882140 -112.106702 174 11031ft 325kts
02-Jan-18 14:39 40.794181 -112.096931 174 11000ft 325kts
02-Jan-18 14:40 40.706307 -112.086958 174 10923ft 299kts
02-Jan-18 14:41 40.625483 -112.077913 174 9354ft 289kts
02-Jan-18 14:42 40.546725 -112.066081 153 8974ft 287kts
02-Jan-18 14:43 40.524616 -111.977462 90 8565ft 273kts
02-Jan-18 14:44 40.560555 -111.925229 336 8176ft 228kts
02-Jan-18 14:45 40.615899 -111.951995 349 7406ft 203kts
02-Jan-18 14:46 40.664820 -111.960213 354 6410ft 170kts
02-Jan-18 14:47 40.711060 -111.965760 355 5535ft 168kts
02-Jan-18 14:48 40.750459 -111.970620 357 4759ft 143kts
02-Jan-18 14:49 40.787761 -111.974657 354 4235ft 81kts
02-Jan-18 14:50 40.792141 -111.976701 270 4235ft 6kts
02-Jan-18 14:51 40.791109 -111.977216 175 4235ft 15kts

Navigation Log

Ident Type
Flight plan parsing failed, navigation log unavailable